sensor_id;sensor_type;location;lat;lon;timestamp;temperature;humidity
10722;DHT22;5412;59.450;18.124;2024-02-23T00:00:10;5.40;99.90
10722;DHT22;5412;59.450;18.124;2024-02-23T00:02:37;5.50;99.90
10722;DHT22;5412;59.450;18.124;2024-02-23T00:05:03;5.50;99.90
10722;DHT22;5412;59.450;18.124;2024-02-23T00:07:29;5.50;99.90
10722;DHT22;5412;59.450;18.124;2024-02-23T00:09:55;5.50;99.90
10722;DHT22;5412;59.450;18.124;2024-02-23T00:12:20;5.50;99.90
10722;DHT22;5412;59.450;18.124;2024-02-23T00:14:46;5.50;99.90
10722;DHT22;5412;59.450;18.124;2024-02-23T00:17:12;5.40;99.90
10722;DHT22;5412;59.450;18.124;2024-02-23T00:19:38;5.40;99.90
10722;DHT22;5412;59.450;18.124;2024-02-23T00:22:05;5.30;99.90
10722;DHT22;5412;59.450;18.124;2024-02-23T00:24:32;5.40;99.90
10722;DHT22;5412;59.450;18.124;2024-02-23T00:26:58;5.40;99.90
10722;DHT22;5412;59.450;18.124;2024-02-23T00:29:24;5.40;99.90
10722;DHT22;5412;59.450;18.124;2024-02-23T00:31:49;5.50;99.90
10722;DHT22;5412;59.450;18.124;2024-02-23T00:34:16;5.50;99.90
10722;DHT22;5412;59.450;18.124;2024-02-23T00:36:42;5.40;99.90
10722;DHT22;5412;59.450;18.124;2024-02-23T00:39:10;5.50;99.90
10722;DHT22;5412;59.450;18.124;2024-02-23T00:41:36;5.50;99.90
10722;DHT22;5412;59.450;18.124;2024-02-23T00:44:03;5.40;99.90
10722;DHT22;5412;59.450;18.124;2024-02-23T00:46:29;5.40;99.90
10722;DHT22;5412;59.450;18.124;2024-02-23T00:48:54;5.40;99.90
10722;DHT22;5412;59.450;18.124;2024-02-23T00:51:20;5.40;99.90
10722;DHT22;5412;59.450;18.124;2024-02-23T00:53:46;5.40;99.90
10722;DHT22;5412;59.450;18.124;2024-02-23T00:56:12;5.30;99.90
10722;DHT22;5412;59.450;18.124;2024-02-23T00:58:38;5.30;99.90
10722;DHT22;5412;59.450;18.124;2024-02-23T01:01:04;5.20;99.90
10722;DHT22;5412;59.450;18.124;2024-02-23T01:03:30;5.30;99.90
10722;DHT22;5412;59.450;18.124;2024-02-23T01:05:56;5.40;99.90
10722;DHT22;5412;59.450;18.124;2024-02-23T01:08:21;5.30;99.90
10722;DHT22;5412;59.450;18.124;2024-02-23T01:10:47;5.30;99.90
10722;DHT22;5412;59.450;18.124;2024-02-23T01:13:13;5.30;99.90
10722;DHT22;5412;59.450;18.124;2024-02-23T01:15:39;5.40;99.90
10722;DHT22;5412;59.450;18.124;2024-02-23T01:18:05;5.30;99.90
10722;DHT22;5412;59.450;18.124;2024-02-23T01:20:34;5.40;99.90
10722;DHT22;5412;59.450;18.124;2024-02-23T01:23:00;5.20;99.90
10722;DHT22;5412;59.450;18.124;2024-02-23T01:25:26;5.30;99.90
10722;DHT22;5412;59.450;18.124;2024-02-23T01:27:52;5.30;99.90
10722;DHT22;5412;59.450;18.124;2024-02-23T01:30:18;5.30;99.90
10722;DHT22;5412;59.450;18.124;2024-02-23T01:32:45;5.40;99.90
10722;DHT22;5412;59.450;18.124;2024-02-23T01:35:10;5.40;99.90
10722;DHT22;5412;59.450;18.124;2024-02-23T01:37:36;5.40;99.90
10722;DHT22;5412;59.450;18.124;2024-02-23T01:40:02;5.40;99.90
10722;DHT22;5412;59.450;18.124;2024-02-23T01:42:29;5.40;99.90
10722;DHT22;5412;59.450;18.124;2024-02-23T01:44:54;5.40;99.90
10722;DHT22;5412;59.450;18.124;2024-02-23T01:47:24;5.30;99.90
10722;DHT22;5412;59.450;18.124;2024-02-23T01:49:50;5.30;99.90
10722;DHT22;5412;59.450;18.124;2024-02-23T01:52:17;5.50;99.90
10722;DHT22;5412;59.450;18.124;2024-02-23T01:54:44;5.30;99.90
10722;DHT22;5412;59.450;18.124;2024-02-23T01:57:10;5.40;99.90
10722;DHT22;5412;59.450;18.124;2024-02-23T01:59:37;5.40;99.90
10722;DHT22;5412;59.450;18.124;2024-02-23T02:02:04;5.40;99.90
10722;DHT22;5412;59.450;18.124;2024-02-23T02:04:30;5.50;99.90
10722;DHT22;5412;59.450;18.124;2024-02-23T02:06:57;5.50;99.90
10722;DHT22;5412;59.450;18.124;2024-02-23T02:09:23;5.40;99.90
10722;DHT22;5412;59.450;18.124;2024-02-23T02:11:50;5.40;99.90
10722;DHT22;5412;59.450;18.124;2024-02-23T02:14:16;5.40;99.90
10722;DHT22;5412;59.450;18.124;2024-02-23T02:16:42;5.40;99.90
10722;DHT22;5412;59.450;18.124;2024-02-23T02:19:09;5.50;99.90
10722;DHT22;5412;59.450;18.124;2024-02-23T02:21:36;5.50;99.90
10722;DHT22;5412;59.450;18.124;2024-02-23T02:24:02;5.50;99.90
10722;DHT22;5412;59.450;18.124;2024-02-23T02:26:28;5.50;99.90
10722;DHT22;5412;59.450;18.124;2024-02-23T02:28:54;5.50;99.90
10722;DHT22;5412;59.450;18.124;2024-02-23T02:31:20;5.40;99.90
10722;DHT22;5412;59.450;18.124;2024-02-23T02:33:46;5.50;99.90
10722;DHT22;5412;59.450;18.124;2024-02-23T02:36:11;5.50;99.90
10722;DHT22;5412;59.450;18.124;2024-02-23T02:38:37;5.50;99.90
10722;DHT22;5412;59.450;18.124;2024-02-23T02:41:04;5.50;99.90
10722;DHT22;5412;59.450;18.124;2024-02-23T02:43:30;5.60;99.90
10722;DHT22;5412;59.450;18.124;2024-02-23T02:45:56;5.60;99.90
10722;DHT22;5412;59.450;18.124;2024-02-23T02:48:23;5.60;99.90
10722;DHT22;5412;59.450;18.124;2024-02-23T02:50:48;5.50;99.90
10722;DHT22;5412;59.450;18.124;2024-02-23T02:53:15;5.50;99.90
10722;DHT22;5412;59.450;18.124;2024-02-23T02:55:44;5.60;99.90
10722;DHT22;5412;59.450;18.124;2024-02-23T02:58:11;5.60;99.90
10722;DHT22;5412;59.450;18.124;2024-02-23T03:00:38;5.50;99.90
10722;DHT22;5412;59.450;18.124;2024-02-23T03:03:04;5.40;99.90
10722;DHT22;5412;59.450;18.124;2024-02-23T03:05:29;5.40;99.90
10722;DHT22;5412;59.450;18.124;2024-02-23T03:07:55;5.50;99.90
10722;DHT22;5412;59.450;18.124;2024-02-23T03:10:21;5.60;99.90
10722;DHT22;5412;59.450;18.124;2024-02-23T03:12:47;5.50;99.90
10722;DHT22;5412;59.450;18.124;2024-02-23T03:15:12;5.40;99.90
10722;DHT22;5412;59.450;18.124;2024-02-23T03:17:38;5.40;99.90
10722;DHT22;5412;59.450;18.124;2024-02-23T03:20:04;5.40;99.90
10722;DHT22;5412;59.450;18.124;2024-02-23T03:22:39;5.50;99.90
10722;DHT22;5412;59.450;18.124;2024-02-23T03:25:06;5.40;99.90
10722;DHT22;5412;59.450;18.124;2024-02-23T03:27:36;5.50;99.90
10722;DHT22;5412;59.450;18.124;2024-02-23T03:30:03;5.40;99.90
10722;DHT22;5412;59.450;18.124;2024-02-23T03:32:29;5.40;99.90
10722;DHT22;5412;59.450;18.124;2024-02-23T03:34:56;5.40;99.90
10722;DHT22;5412;59.450;18.124;2024-02-23T03:37:22;5.40;99.90
10722;DHT22;5412;59.450;18.124;2024-02-23T03:39:48;5.40;99.90
10722;DHT22;5412;59.450;18.124;2024-02-23T03:42:14;5.50;99.90
10722;DHT22;5412;59.450;18.124;2024-02-23T03:44:40;5.50;99.90
10722;DHT22;5412;59.450;18.124;2024-02-23T03:47:08;5.50;99.90
10722;DHT22;5412;59.450;18.124;2024-02-23T03:49:33;5.50;99.90
10722;DHT22;5412;59.450;18.124;2024-02-23T03:51:59;5.50;99.90
10722;DHT22;5412;59.450;18.124;2024-02-23T03:54:25;5.50;99.90
10722;DHT22;5412;59.450;18.124;2024-02-23T03:56:50;5.50;99.90
10722;DHT22;5412;59.450;18.124;2024-02-23T03:59:16;5.50;99.90
10722;DHT22;5412;59.450;18.124;2024-02-23T04:01:42;5.40;99.90
10722;DHT22;5412;59.450;18.124;2024-02-23T04:04:07;5.50;99.90
10722;DHT22;5412;59.450;18.124;2024-02-23T04:06:34;5.50;99.90
10722;DHT22;5412;59.450;18.124;2024-02-23T04:08:59;5.50;99.90
10722;DHT22;5412;59.450;18.124;2024-02-23T04:11:25;5.40;99.90
10722;DHT22;5412;59.450;18.124;2024-02-23T04:13:51;5.40;99.90
10722;DHT22;5412;59.450;18.124;2024-02-23T04:16:16;5.40;99.90
10722;DHT22;5412;59.450;18.124;2024-02-23T04:18:42;5.40;99.90
10722;DHT22;5412;59.450;18.124;2024-02-23T04:21:08;5.40;99.90
10722;DHT22;5412;59.450;18.124;2024-02-23T04:23:34;5.40;99.90
10722;DHT22;5412;59.450;18.124;2024-02-23T04:25:59;5.30;99.90
10722;DHT22;5412;59.450;18.124;2024-02-23T04:28:25;5.40;99.90
10722;DHT22;5412;59.450;18.124;2024-02-23T04:30:53;5.30;99.90
10722;DHT22;5412;59.450;18.124;2024-02-23T04:33:19;5.30;99.90
10722;DHT22;5412;59.450;18.124;2024-02-23T04:35:44;5.30;99.90
10722;DHT22;5412;59.450;18.124;2024-02-23T04:38:10;5.30;99.90
10722;DHT22;5412;59.450;18.124;2024-02-23T04:40:36;5.40;99.90
10722;DHT22;5412;59.450;18.124;2024-02-23T04:43:02;5.40;99.90
10722;DHT22;5412;59.450;18.124;2024-02-23T04:45:28;5.40;99.90
10722;DHT22;5412;59.450;18.124;2024-02-23T04:47:53;5.40;99.90
10722;DHT22;5412;59.450;18.124;2024-02-23T04:50:19;5.40;99.90
10722;DHT22;5412;59.450;18.124;2024-02-23T04:52:45;5.40;99.90
10722;DHT22;5412;59.450;18.124;2024-02-23T04:55:10;5.50;99.90
10722;DHT22;5412;59.450;18.124;2024-02-23T04:57:37;5.50;99.90
10722;DHT22;5412;59.450;18.124;2024-02-23T05:00:04;5.40;99.90
10722;DHT22;5412;59.450;18.124;2024-02-23T05:02:33;5.40;99.90
10722;DHT22;5412;59.450;18.124;2024-02-23T05:05:02;5.40;99.90
10722;DHT22;5412;59.450;18.124;2024-02-23T05:07:33;5.50;99.90
10722;DHT22;5412;59.450;18.124;2024-02-23T05:09:58;5.50;99.90
10722;DHT22;5412;59.450;18.124;2024-02-23T05:12:24;5.50;99.90
10722;DHT22;5412;59.450;18.124;2024-02-23T05:14:50;5.50;99.90
10722;DHT22;5412;59.450;18.124;2024-02-23T05:17:15;5.50;99.90
10722;DHT22;5412;59.450;18.124;2024-02-23T05:19:41;5.40;99.90
10722;DHT22;5412;59.450;18.124;2024-02-23T05:22:07;5.40;99.90
10722;DHT22;5412;59.450;18.124;2024-02-23T05:24:32;5.40;99.90
10722;DHT22;5412;59.450;18.124;2024-02-23T05:26:58;5.40;99.90
10722;DHT22;5412;59.450;18.124;2024-02-23T05:29:27;5.40;99.90
10722;DHT22;5412;59.450;18.124;2024-02-23T05:31:53;5.40;99.90
10722;DHT22;5412;59.450;18.124;2024-02-23T05:34:19;5.30;99.90
10722;DHT22;5412;59.450;18.124;2024-02-23T05:36:45;5.40;99.90
10722;DHT22;5412;59.450;18.124;2024-02-23T05:39:12;5.40;99.90
10722;DHT22;5412;59.450;18.124;2024-02-23T05:41:39;5.50;99.90
10722;DHT22;5412;59.450;18.124;2024-02-23T05:44:05;5.50;99.90
10722;DHT22;5412;59.450;18.124;2024-02-23T05:46:35;5.60;99.90
10722;DHT22;5412;59.450;18.124;2024-02-23T05:49:02;5.50;99.90
10722;DHT22;5412;59.450;18.124;2024-02-23T05:51:28;5.50;99.90
10722;DHT22;5412;59.450;18.124;2024-02-23T05:53:58;5.50;99.90
10722;DHT22;5412;59.450;18.124;2024-02-23T05:56:24;5.50;99.90
10722;DHT22;5412;59.450;18.124;2024-02-23T05:58:50;5.50;99.90
10722;DHT22;5412;59.450;18.124;2024-02-23T06:01:17;5.50;99.90
10722;DHT22;5412;59.450;18.124;2024-02-23T06:03:43;5.40;99.90
10722;DHT22;5412;59.450;18.124;2024-02-23T06:06:10;5.40;99.90
10722;DHT22;5412;59.450;18.124;2024-02-23T06:08:36;5.30;99.90
10722;DHT22;5412;59.450;18.124;2024-02-23T06:11:02;5.40;99.90
10722;DHT22;5412;59.450;18.124;2024-02-23T06:13:29;5.40;99.90
10722;DHT22;5412;59.450;18.124;2024-02-23T06:15:55;5.40;99.90
10722;DHT22;5412;59.450;18.124;2024-02-23T06:18:21;5.50;99.90
10722;DHT22;5412;59.450;18.124;2024-02-23T06:20:48;5.40;99.90
10722;DHT22;5412;59.450;18.124;2024-02-23T06:23:16;5.40;99.90
10722;DHT22;5412;59.450;18.124;2024-02-23T06:25:42;5.30;99.90
10722;DHT22;5412;59.450;18.124;2024-02-23T06:28:09;5.40;99.90
10722;DHT22;5412;59.450;18.124;2024-02-23T06:30:36;5.40;99.90
10722;DHT22;5412;59.450;18.124;2024-02-23T06:33:01;5.50;99.90
10722;DHT22;5412;59.450;18.124;2024-02-23T06:35:27;5.40;99.90
10722;DHT22;5412;59.450;18.124;2024-02-23T06:37:53;5.50;99.90
10722;DHT22;5412;59.450;18.124;2024-02-23T06:40:18;5.50;99.90
10722;DHT22;5412;59.450;18.124;2024-02-23T06:42:44;5.60;99.90
10722;DHT22;5412;59.450;18.124;2024-02-23T06:45:10;5.60;99.90
10722;DHT22;5412;59.450;18.124;2024-02-23T06:47:36;5.50;99.90
10722;DHT22;5412;59.450;18.124;2024-02-23T06:50:02;5.50;99.90
10722;DHT22;5412;59.450;18.124;2024-02-23T06:52:29;5.50;99.90
10722;DHT22;5412;59.450;18.124;2024-02-23T06:54:54;5.60;99.90
10722;DHT22;5412;59.450;18.124;2024-02-23T06:57:20;5.60;99.90
10722;DHT22;5412;59.450;18.124;2024-02-23T06:59:46;5.50;99.90
10722;DHT22;5412;59.450;18.124;2024-02-23T07:02:11;5.50;99.90
10722;DHT22;5412;59.450;18.124;2024-02-23T07:04:37;5.60;99.90
10722;DHT22;5412;59.450;18.124;2024-02-23T07:07:03;5.60;99.90
10722;DHT22;5412;59.450;18.124;2024-02-23T07:09:33;6.00;99.90
10722;DHT22;5412;59.450;18.124;2024-02-23T07:11:59;6.40;99.90
10722;DHT22;5412;59.450;18.124;2024-02-23T07:14:24;6.50;99.90
10722;DHT22;5412;59.450;18.124;2024-02-23T07:16:50;6.60;99.90
10722;DHT22;5412;59.450;18.124;2024-02-23T07:19:17;6.60;99.90
10722;DHT22;5412;59.450;18.124;2024-02-23T07:21:45;6.50;99.90
10722;DHT22;5412;59.450;18.124;2024-02-23T07:24:11;6.80;99.90
10722;DHT22;5412;59.450;18.124;2024-02-23T07:26:37;6.50;99.90
10722;DHT22;5412;59.450;18.124;2024-02-23T07:29:03;8.00;99.90
10722;DHT22;5412;59.450;18.124;2024-02-23T07:31:29;6.20;99.90
10722;DHT22;5412;59.450;18.124;2024-02-23T07:33:54;6.10;99.90
10722;DHT22;5412;59.450;18.124;2024-02-23T07:36:20;6.00;99.90
10722;DHT22;5412;59.450;18.124;2024-02-23T07:38:46;6.00;99.90
10722;DHT22;5412;59.450;18.124;2024-02-23T07:41:12;5.80;99.90
10722;DHT22;5412;59.450;18.124;2024-02-23T07:43:43;5.90;99.90
10722;DHT22;5412;59.450;18.124;2024-02-23T07:46:09;5.80;99.90
10722;DHT22;5412;59.450;18.124;2024-02-23T07:48:35;5.80;99.90
10722;DHT22;5412;59.450;18.124;2024-02-23T07:51:05;5.70;99.90
10722;DHT22;5412;59.450;18.124;2024-02-23T07:53:30;5.80;99.90
10722;DHT22;5412;59.450;18.124;2024-02-23T07:55:57;5.80;99.90
10722;DHT22;5412;59.450;18.124;2024-02-23T07:58:25;5.80;99.90
10722;DHT22;5412;59.450;18.124;2024-02-23T08:00:52;5.90;99.90
10722;DHT22;5412;59.450;18.124;2024-02-23T08:03:18;5.90;99.90
10722;DHT22;5412;59.450;18.124;2024-02-23T08:05:44;5.80;99.90
10722;DHT22;5412;59.450;18.124;2024-02-23T08:08:10;5.90;99.90
10722;DHT22;5412;59.450;18.124;2024-02-23T08:10:36;6.00;99.90
10722;DHT22;5412;59.450;18.124;2024-02-23T08:13:01;6.00;99.90
10722;DHT22;5412;59.450;18.124;2024-02-23T08:15:27;6.00;99.90
10722;DHT22;5412;59.450;18.124;2024-02-23T08:17:53;6.00;99.90
10722;DHT22;5412;59.450;18.124;2024-02-23T08:20:19;6.00;99.90
10722;DHT22;5412;59.450;18.124;2024-02-23T08:22:45;6.00;99.90
10722;DHT22;5412;59.450;18.124;2024-02-23T08:25:10;6.00;99.90
10722;DHT22;5412;59.450;18.124;2024-02-23T08:27:36;6.00;99.90
10722;DHT22;5412;59.450;18.124;2024-02-23T08:30:02;6.00;99.90
10722;DHT22;5412;59.450;18.124;2024-02-23T08:32:28;6.00;99.90
10722;DHT22;5412;59.450;18.124;2024-02-23T08:34:54;6.00;99.90
10722;DHT22;5412;59.450;18.124;2024-02-23T08:37:25;6.00;99.90
10722;DHT22;5412;59.450;18.124;2024-02-23T08:39:51;6.00;99.90
10722;DHT22;5412;59.450;18.124;2024-02-23T08:42:17;5.90;99.90
10722;DHT22;5412;59.450;18.124;2024-02-23T08:44:42;5.90;99.90
10722;DHT22;5412;59.450;18.124;2024-02-23T08:47:08;6.00;99.90
10722;DHT22;5412;59.450;18.124;2024-02-23T08:49:34;5.90;99.90
10722;DHT22;5412;59.450;18.124;2024-02-23T08:52:00;6.00;99.90
10722;DHT22;5412;59.450;18.124;2024-02-23T08:54:26;5.90;99.90
10722;DHT22;5412;59.450;18.124;2024-02-23T08:56:51;5.90;99.90
10722;DHT22;5412;59.450;18.124;2024-02-23T08:59:17;6.00;99.90
10722;DHT22;5412;59.450;18.124;2024-02-23T09:01:42;6.00;99.90
10722;DHT22;5412;59.450;18.124;2024-02-23T09:04:10;6.00;99.90
10722;DHT22;5412;59.450;18.124;2024-02-23T09:06:35;6.00;99.90
10722;DHT22;5412;59.450;18.124;2024-02-23T09:09:01;6.10;99.90
10722;DHT22;5412;59.450;18.124;2024-02-23T09:11:27;6.10;99.90
10722;DHT22;5412;59.450;18.124;2024-02-23T09:13:52;6.10;99.90
10722;DHT22;5412;59.450;18.124;2024-02-23T09:16:18;6.10;99.90
10722;DHT22;5412;59.450;18.124;2024-02-23T09:18:44;6.20;99.90
10722;DHT22;5412;59.450;18.124;2024-02-23T09:21:10;6.10;99.90
10722;DHT22;5412;59.450;18.124;2024-02-23T09:23:35;6.10;99.90
10722;DHT22;5412;59.450;18.124;2024-02-23T09:26:01;6.10;99.90
10722;DHT22;5412;59.450;18.124;2024-02-23T09:28:30;6.20;99.90
10722;DHT22;5412;59.450;18.124;2024-02-23T09:30:55;6.20;99.90
10722;DHT22;5412;59.450;18.124;2024-02-23T09:33:21;6.20;99.90
10722;DHT22;5412;59.450;18.124;2024-02-23T09:35:47;6.20;99.90
10722;DHT22;5412;59.450;18.124;2024-02-23T09:38:12;6.30;99.90
10722;DHT22;5412;59.450;18.124;2024-02-23T09:40:39;6.30;99.90
10722;DHT22;5412;59.450;18.124;2024-02-23T09:43:08;6.30;99.90
10722;DHT22;5412;59.450;18.124;2024-02-23T09:45:33;6.30;99.90
10722;DHT22;5412;59.450;18.124;2024-02-23T09:48:00;6.20;99.90
10722;DHT22;5412;59.450;18.124;2024-02-23T09:50:29;6.30;99.90
10722;DHT22;5412;59.450;18.124;2024-02-23T09:52:57;6.30;99.90
10722;DHT22;5412;59.450;18.124;2024-02-23T09:55:23;6.40;99.90
10722;DHT22;5412;59.450;18.124;2024-02-23T09:57:52;6.50;99.90
10722;DHT22;5412;59.450;18.124;2024-02-23T10:00:23;6.50;99.90
10722;DHT22;5412;59.450;18.124;2024-02-23T10:02:49;6.50;99.90
10722;DHT22;5412;59.450;18.124;2024-02-23T10:05:16;6.60;99.90
10722;DHT22;5412;59.450;18.124;2024-02-23T10:07:42;6.70;99.90
10722;DHT22;5412;59.450;18.124;2024-02-23T10:10:10;6.80;99.90
10722;DHT22;5412;59.450;18.124;2024-02-23T10:12:36;6.90;99.90
10722;DHT22;5412;59.450;18.124;2024-02-23T10:15:03;7.00;99.90
10722;DHT22;5412;59.450;18.124;2024-02-23T10:17:32;7.10;99.90
10722;DHT22;5412;59.450;18.124;2024-02-23T10:20:01;7.20;99.90
10722;DHT22;5412;59.450;18.124;2024-02-23T10:22:30;7.30;99.90
10722;DHT22;5412;59.450;18.124;2024-02-23T10:24:56;7.40;99.90
10722;DHT22;5412;59.450;18.124;2024-02-23T10:27:23;7.50;99.90
10722;DHT22;5412;59.450;18.124;2024-02-23T10:29:51;7.50;99.90
10722;DHT22;5412;59.450;18.124;2024-02-23T10:32:18;7.60;99.90
10722;DHT22;5412;59.450;18.124;2024-02-23T10:34:47;7.50;99.90
10722;DHT22;5412;59.450;18.124;2024-02-23T10:37:15;7.50;99.90
10722;DHT22;5412;59.450;18.124;2024-02-23T10:39:42;7.70;99.90
10722;DHT22;5412;59.450;18.124;2024-02-23T10:42:09;7.70;99.90
10722;DHT22;5412;59.450;18.124;2024-02-23T10:44:35;7.60;99.90
10722;DHT22;5412;59.450;18.124;2024-02-23T10:47:02;7.70;99.90
10722;DHT22;5412;59.450;18.124;2024-02-23T10:49:30;7.80;99.90
10722;DHT22;5412;59.450;18.124;2024-02-23T10:51:56;7.80;99.90
10722;DHT22;5412;59.450;18.124;2024-02-23T10:54:22;7.80;99.90
10722;DHT22;5412;59.450;18.124;2024-02-23T10:56:50;7.60;99.90
10722;DHT22;5412;59.450;18.124;2024-02-23T10:59:17;7.60;99.90
10722;DHT22;5412;59.450;18.124;2024-02-23T11:01:54;7.60;99.90
10722;DHT22;5412;59.450;18.124;2024-02-23T11:04:23;7.80;99.90
10722;DHT22;5412;59.450;18.124;2024-02-23T11:06:56;7.90;99.90
10722;DHT22;5412;59.450;18.124;2024-02-23T11:09:24;7.90;99.90
10722;DHT22;5412;59.450;18.124;2024-02-23T11:11:53;8.00;99.90
10722;DHT22;5412;59.450;18.124;2024-02-23T11:14:35;8.00;99.90
10722;DHT22;5412;59.450;18.124;2024-02-23T11:17:02;8.10;99.90
10722;DHT22;5412;59.450;18.124;2024-02-23T11:19:36;8.10;99.90
10722;DHT22;5412;59.450;18.124;2024-02-23T11:22:02;8.20;99.90
10722;DHT22;5412;59.450;18.124;2024-02-23T11:24:29;8.30;99.90
10722;DHT22;5412;59.450;18.124;2024-02-23T11:26:59;8.20;99.90
10722;DHT22;5412;59.450;18.124;2024-02-23T11:29:27;8.20;99.90
10722;DHT22;5412;59.450;18.124;2024-02-23T11:31:55;8.30;99.90
10722;DHT22;5412;59.450;18.124;2024-02-23T11:34:27;8.40;99.90
10722;DHT22;5412;59.450;18.124;2024-02-23T11:36:53;8.50;99.90
10722;DHT22;5412;59.450;18.124;2024-02-23T11:39:19;8.60;99.90
10722;DHT22;5412;59.450;18.124;2024-02-23T11:41:48;8.50;99.90
10722;DHT22;5412;59.450;18.124;2024-02-23T11:44:17;8.50;99.90
10722;DHT22;5412;59.450;18.124;2024-02-23T11:46:43;8.50;99.90
10722;DHT22;5412;59.450;18.124;2024-02-23T11:49:10;8.50;99.90
10722;DHT22;5412;59.450;18.124;2024-02-23T11:51:36;8.60;99.90
10722;DHT22;5412;59.450;18.124;2024-02-23T11:54:02;8.70;99.90
10722;DHT22;5412;59.450;18.124;2024-02-23T11:56:29;8.60;99.90
10722;DHT22;5412;59.450;18.124;2024-02-23T11:58:55;8.60;99.90
10722;DHT22;5412;59.450;18.124;2024-02-23T12:01:21;8.60;99.90
10722;DHT22;5412;59.450;18.124;2024-02-23T12:03:47;8.60;99.90
10722;DHT22;5412;59.450;18.124;2024-02-23T12:06:14;8.60;99.90
10722;DHT22;5412;59.450;18.124;2024-02-23T12:08:43;8.60;99.90
10722;DHT22;5412;59.450;18.124;2024-02-23T12:11:11;8.70;99.90
10722;DHT22;5412;59.450;18.124;2024-02-23T12:13:38;9.90;99.90
10722;DHT22;5412;59.450;18.124;2024-02-23T12:16:04;8.60;99.90
10722;DHT22;5412;59.450;18.124;2024-02-23T12:18:33;8.70;99.90
10722;DHT22;5412;59.450;18.124;2024-02-23T12:21:08;8.70;99.90
10722;DHT22;5412;59.450;18.124;2024-02-23T12:26:04;9.80;99.90
10722;DHT22;5412;59.450;18.124;2024-02-23T12:28:30;8.80;99.90
10722;DHT22;5412;59.450;18.124;2024-02-23T12:31:03;8.80;99.90
10722;DHT22;5412;59.450;18.124;2024-02-23T12:33:34;8.70;99.90
10722;DHT22;5412;59.450;18.124;2024-02-23T12:36:01;8.70;99.90
10722;DHT22;5412;59.450;18.124;2024-02-23T12:38:27;8.60;99.90
10722;DHT22;5412;59.450;18.124;2024-02-23T12:40:53;8.60;99.90
10722;DHT22;5412;59.450;18.124;2024-02-23T12:43:19;8.70;99.90
10722;DHT22;5412;59.450;18.124;2024-02-23T12:45:52;8.80;99.90
10722;DHT22;5412;59.450;18.124;2024-02-23T12:48:18;8.80;99.90
10722;DHT22;5412;59.450;18.124;2024-02-23T12:50:45;8.80;99.90
10722;DHT22;5412;59.450;18.124;2024-02-23T12:53:50;8.80;99.90
10722;DHT22;5412;59.450;18.124;2024-02-23T12:56:15;8.90;99.90
10722;DHT22;5412;59.450;18.124;2024-02-23T12:58:42;8.90;99.90
10722;DHT22;5412;59.450;18.124;2024-02-23T13:01:09;8.80;99.90
10722;DHT22;5412;59.450;18.124;2024-02-23T13:03:36;9.00;99.90
10722;DHT22;5412;59.450;18.124;2024-02-23T13:06:03;9.00;99.90
10722;DHT22;5412;59.450;18.124;2024-02-23T13:08:29;9.00;99.90
10722;DHT22;5412;59.450;18.124;2024-02-23T13:10:56;7.50;99.90
10722;DHT22;5412;59.450;18.124;2024-02-23T13:13:22;8.70;99.90
10722;DHT22;5412;59.450;18.124;2024-02-23T13:15:49;8.80;99.90
10722;DHT22;5412;59.450;18.124;2024-02-23T13:18:16;8.80;99.90
10722;DHT22;5412;59.450;18.124;2024-02-23T13:20:42;8.70;99.90
10722;DHT22;5412;59.450;18.124;2024-02-23T13:23:09;8.70;99.90
10722;DHT22;5412;59.450;18.124;2024-02-23T13:25:44;8.60;99.90
10722;DHT22;5412;59.450;18.124;2024-02-23T13:28:10;8.50;99.90
10722;DHT22;5412;59.450;18.124;2024-02-23T13:30:37;8.60;99.90
10722;DHT22;5412;59.450;18.124;2024-02-23T13:33:03;8.60;99.90
10722;DHT22;5412;59.450;18.124;2024-02-23T13:35:30;8.50;99.90
10722;DHT22;5412;59.450;18.124;2024-02-23T13:37:55;8.50;99.90
10722;DHT22;5412;59.450;18.124;2024-02-23T13:40:23;8.50;99.90
10722;DHT22;5412;59.450;18.124;2024-02-23T13:42:48;8.50;99.90
10722;DHT22;5412;59.450;18.124;2024-02-23T13:45:19;8.40;99.90
10722;DHT22;5412;59.450;18.124;2024-02-23T13:47:59;8.40;99.90
10722;DHT22;5412;59.450;18.124;2024-02-23T13:50:25;8.40;99.90
10722;DHT22;5412;59.450;18.124;2024-02-23T13:52:51;8.40;99.90
10722;DHT22;5412;59.450;18.124;2024-02-23T13:55:17;8.50;99.90
10722;DHT22;5412;59.450;18.124;2024-02-23T13:57:46;8.40;99.90
10722;DHT22;5412;59.450;18.124;2024-02-23T14:00:12;8.40;99.90
10722;DHT22;5412;59.450;18.124;2024-02-23T14:02:38;8.40;99.90
10722;DHT22;5412;59.450;18.124;2024-02-23T14:05:07;8.40;99.90
10722;DHT22;5412;59.450;18.124;2024-02-23T14:07:34;8.40;99.90
10722;DHT22;5412;59.450;18.124;2024-02-23T14:09:59;8.50;99.90
10722;DHT22;5412;59.450;18.124;2024-02-23T14:12:25;8.50;99.90
10722;DHT22;5412;59.450;18.124;2024-02-23T14:14:51;8.80;99.90
10722;DHT22;5412;59.450;18.124;2024-02-23T14:17:17;10.00;99.90
10722;DHT22;5412;59.450;18.124;2024-02-23T14:19:43;11.00;99.90
10722;DHT22;5412;59.450;18.124;2024-02-23T14:22:08;11.30;99.90
10722;DHT22;5412;59.450;18.124;2024-02-23T14:24:34;11.20;99.90
10722;DHT22;5412;59.450;18.124;2024-02-23T14:27:00;10.60;99.90
10722;DHT22;5412;59.450;18.124;2024-02-23T14:29:25;10.40;99.90
10722;DHT22;5412;59.450;18.124;2024-02-23T14:31:51;10.30;99.90
10722;DHT22;5412;59.450;18.124;2024-02-23T14:34:17;10.20;99.90
10722;DHT22;5412;59.450;18.124;2024-02-23T14:36:42;9.70;99.90
10722;DHT22;5412;59.450;18.124;2024-02-23T14:39:09;9.40;99.90
10722;DHT22;5412;59.450;18.124;2024-02-23T14:41:35;9.20;99.90
10722;DHT22;5412;59.450;18.124;2024-02-23T14:44:01;9.10;99.90
10722;DHT22;5412;59.450;18.124;2024-02-23T14:46:27;8.90;99.90
10722;DHT22;5412;59.450;18.124;2024-02-23T14:48:52;8.70;99.90
10722;DHT22;5412;59.450;18.124;2024-02-23T14:51:19;8.70;99.90
10722;DHT22;5412;59.450;18.124;2024-02-23T14:53:45;8.90;99.90
10722;DHT22;5412;59.450;18.124;2024-02-23T14:56:10;8.60;99.90
10722;DHT22;5412;59.450;18.124;2024-02-23T14:58:36;8.60;99.90
10722;DHT22;5412;59.450;18.124;2024-02-23T15:01:02;8.40;99.90
10722;DHT22;5412;59.450;18.124;2024-02-23T15:03:27;8.30;99.90
10722;DHT22;5412;59.450;18.124;2024-02-23T15:05:53;8.60;99.90
10722;DHT22;5412;59.450;18.124;2024-02-23T15:08:19;8.40;99.90
10722;DHT22;5412;59.450;18.124;2024-02-23T15:10:44;8.20;99.90
10722;DHT22;5412;59.450;18.124;2024-02-23T15:13:10;8.20;99.90
10722;DHT22;5412;59.450;18.124;2024-02-23T15:15:36;8.10;99.90
10722;DHT22;5412;59.450;18.124;2024-02-23T15:18:06;7.90;99.90
10722;DHT22;5412;59.450;18.124;2024-02-23T15:20:32;7.90;99.90
10722;DHT22;5412;59.450;18.124;2024-02-23T15:22:57;7.90;99.90
10722;DHT22;5412;59.450;18.124;2024-02-23T15:25:23;7.80;99.90
10722;DHT22;5412;59.450;18.124;2024-02-23T15:27:49;7.70;99.90
10722;DHT22;5412;59.450;18.124;2024-02-23T15:30:15;7.70;99.90
10722;DHT22;5412;59.450;18.124;2024-02-23T15:32:41;7.70;99.90
10722;DHT22;5412;59.450;18.124;2024-02-23T15:35:07;7.60;99.90
10722;DHT22;5412;59.450;18.124;2024-02-23T15:37:33;7.70;99.90
10722;DHT22;5412;59.450;18.124;2024-02-23T15:39:59;7.60;99.90
10722;DHT22;5412;59.450;18.124;2024-02-23T15:42:25;7.60;99.90